Nearby METAR Reports

 

LIEE - Cagliari Elmas, Italy
Distance from station: ONO 12km
Dati ricevuti: 25/01/2021 21:20
Pioviggine, Parz. nuvoloso
Pioviggine, Parz. nuvoloso
 Vento da NNO
Vento: NNO 9 km/h
Temperatura: 11°C
P.to Rugiada: 11°C
Umidità: 100%
Barometro: 1009 hPa
Sommario: Pioviggine
Nuvole: Parz. nuvoloso
Visibility: 10 km
Cloud details: Few Clouds 1067 m
Parz. nuvoloso 1676 m
2021/01/25 20:20 LIEE 252020Z 33005KT 9999 -RA FEW035 SCT055 11/11 Q1009
LIED - Decimomannu, Italy
Distance from station: NNO 22km
Dati ricevuti: 25/01/2021 18:55
DATI Obsoleti
Parz. nuvoloso
Parz. nuvoloso
 Vento da NNO
Vento: NNO 9 km/h
Temperatura: 11°C
P.to Rugiada: 10°C
Umidità: 94%
Barometro: 1008 hPa
Nuvole: Parz. nuvoloso
Visibility: 10 km
Cloud details: Parz. nuvoloso 762 m
Parz. nuvoloso 1067 m
2021/01/25 17:55 LIED 251755Z 33005KT 9999 SCT025 SCT035 11/10 Q1008 RMK OVC BKN100 VIS MIN 9999 WIND THR35 /////KT WIND THR17 33006KT BLU